createdAt,value
2023-01-06T00:01:23.303Z,102358.94
2023-01-06T00:03:52.386Z,102374.25
2023-01-06T00:06:27.670Z,102377.53
2023-01-06T00:08:55.968Z,102380.84
2023-01-06T00:11:24.265Z,102380.47
2023-01-06T00:13:52.540Z,102385.56
2023-01-06T00:16:22.056Z,102301.06
2023-01-06T00:18:50.260Z,102249.72
2023-01-06T00:21:18.265Z,102391.47
2023-01-06T00:23:47.520Z,102392.75
2023-01-06T00:26:15.335Z,102389.66
2023-01-06T00:28:43.876Z,102394.41
2023-01-06T00:31:13.499Z,102398.03
2023-01-06T00:33:42.064Z,102390.75
2023-01-06T00:36:11.965Z,102399.88
2023-01-06T00:38:40.797Z,102402.06
2023-01-06T00:41:25.374Z,102343.38
2023-01-06T00:43:53.508Z,102398.78
2023-01-06T00:46:21.433Z,102388.94
2023-01-06T00:49:03.656Z,102382.56
2023-01-06T00:51:32.661Z,102385.66
2023-01-06T00:54:01.194Z,102384.56
2023-01-06T00:56:30.398Z,102392.94
2023-01-06T00:58:58.358Z,102392.59
2023-01-06T01:01:26.466Z,102387.09
2023-01-06T01:03:54.369Z,102389.13
2023-01-06T01:06:22.871Z,102382.00
2023-01-06T01:08:54.725Z,102375.25
2023-01-06T01:11:37.039Z,102378.72
2023-01-06T01:14:06.364Z,102380.16
2023-01-06T01:16:34.261Z,102382.34
2023-01-06T01:19:02.319Z,102344.78
2023-01-06T01:21:30.254Z,102383.63
2023-01-06T01:23:58.180Z,102386.00
2023-01-06T01:26:26.024Z,102399.28
2023-01-06T01:28:54.300Z,102403.28
2023-01-06T01:31:23.728Z,102403.66
2023-01-06T01:33:51.775Z,102347.81
2023-01-06T01:36:20.455Z,102408.72
2023-01-06T01:38:48.378Z,102408.38
2023-01-06T01:41:18.489Z,102389.38
2023-01-06T01:43:48.585Z,102400.31
2023-01-06T01:46:22.728Z,102408.31
2023-01-06T01:48:54.026Z,102388.59
2023-01-06T01:51:27.836Z,102413.78
2023-01-06T01:54:00.089Z,102409.41
2023-01-06T01:56:33.354Z,102410.31
2023-01-06T01:59:06.522Z,102410.50
2023-01-06T02:01:35.036Z,102404.66
2023-01-06T02:04:05.494Z,102420.88
2023-01-06T02:06:34.058Z,102411.41
2023-01-06T02:09:06.212Z,102419.06
2023-01-06T02:11:37.031Z,102409.41
2023-01-06T02:14:13.150Z,102388.03
2023-01-06T02:17:04.940Z,102419.59
2023-01-06T02:20:00.506Z,102347.00
2023-01-06T02:22:51.177Z,102415.78
2023-01-06T02:25:43.837Z,102343.91
2023-01-06T02:28:49.891Z,102424.38
2023-01-06T02:31:53.771Z,102431.84
2023-01-06T02:34:32.936Z,102435.88
2023-01-06T02:37:11.707Z,102421.13
2023-01-06T02:39:46.234Z,102405.81
2023-01-06T02:42:22.664Z,102432.09
2023-01-06T02:45:04.338Z,102427.16
2023-01-06T02:47:41.893Z,102422.25
2023-01-06T02:50:19.899Z,102414.06
2023-01-06T02:52:57.169Z,102414.78
2023-01-06T02:55:30.790Z,102410.22
2023-01-06T02:58:05.432Z,102409.84
2023-01-06T03:00:36.009Z,102413.66
2023-01-06T03:03:10.263Z,102307.00
2023-01-06T03:05:39.366Z,102413.84
2023-01-06T03:08:12.661Z,102413.28
2023-01-06T03:10:43.317Z,102410.34
2023-01-06T03:13:18.636Z,102401.03
2023-01-06T03:15:46.739Z,102361.09
2023-01-06T03:18:16.119Z,102417.44
2023-01-06T03:20:44.183Z,102422.53
2023-01-06T03:23:14.390Z,102410.72
2023-01-06T03:25:42.422Z,102412.34
2023-01-06T03:28:10.237Z,102413.44
2023-01-06T03:30:48.946Z,102406.72
2023-01-06T03:33:24.754Z,102378.78
2023-01-06T03:36:05.191Z,102409.06
2023-01-06T03:38:45.262Z,102395.94
2023-01-06T03:41:23.551Z,102412.56
2023-01-06T03:44:00.623Z,102405.81
2023-01-06T03:46:34.907Z,102395.78
2023-01-06T03:49:09.131Z,102396.34
2023-01-06T03:51:48.207Z,102397.78
2023-01-06T03:54:27.250Z,102396.16
2023-01-06T03:57:04.116Z,102351.09
2023-01-06T03:59:36.017Z,102396.50
2023-01-06T04:02:05.762Z,102394.69
2023-01-06T04:04:35.037Z,102390.13
2023-01-06T04:07:02.827Z,102391.75
2023-01-06T04:09:30.868Z,102388.84
2023-01-06T04:12:16.413Z,102388.84
2023-01-06T04:14:44.454Z,102369.72
2023-01-06T04:17:13.684Z,102369.53
2023-01-06T04:19:42.967Z,102365.88
2023-01-06T04:22:11.003Z,102360.41
2023-01-06T04:24:38.838Z,102368.78
2023-01-06T04:27:06.701Z,102366.22
2023-01-06T04:29:34.759Z,102369.50
2023-01-06T04:32:02.610Z,102360.94
2023-01-06T04:34:30.431Z,102361.66
2023-01-06T04:36:59.861Z,102358.22
2023-01-06T04:39:27.790Z,102359.13
2023-01-06T04:41:55.627Z,102366.03
2023-01-06T04:44:23.713Z,102376.59
2023-01-06T04:46:51.675Z,102368.44
2023-01-06T04:49:19.500Z,102356.97
2023-01-06T04:51:47.486Z,102361.53
2023-01-06T04:54:17.531Z,102370.09
2023-01-06T04:56:45.372Z,102369.75
2023-01-06T04:59:13.525Z,102293.38
2023-01-06T05:01:41.893Z,102366.31
2023-01-06T05:04:09.837Z,102210.69
2023-01-06T05:06:39.497Z,102373.44
2023-01-06T05:09:07.526Z,102371.06
2023-01-06T05:11:36.711Z,102361.97
2023-01-06T05:14:04.656Z,102371.81
2023-01-06T05:16:33.938Z,102308.91
2023-01-06T05:19:02.249Z,102344.25
2023-01-06T05:21:32.835Z,102335.13
2023-01-06T05:24:01.369Z,102328.53
2023-01-06T05:26:29.942Z,102326.84
2023-01-06T05:28:59.300Z,102334.66
2023-01-06T05:31:27.378Z,102324.06
2023-01-06T05:33:55.257Z,102325.84
2023-01-06T05:36:23.244Z,102331.66
2023-01-06T05:38:55.180Z,102322.16
2023-01-06T05:41:23.374Z,102314.84
2023-01-06T05:43:51.329Z,102236.00
2023-01-06T05:46:20.721Z,102252.34
2023-01-06T05:48:48.617Z,102308.75
2023-01-06T05:51:17.469Z,102306.88
2023-01-06T05:53:48.414Z,102309.22
2023-01-06T05:56:17.924Z,102297.66
2023-01-06T05:58:47.307Z,102260.19
2023-01-06T06:01:21.393Z,102283.75
2023-01-06T06:03:49.424Z,102293.19
2023-01-06T06:06:18.664Z,102295.53
2023-01-06T06:08:46.670Z,102284.78
2023-01-06T06:11:16.310Z,102290.53
2023-01-06T06:13:47.557Z,102292.72
2023-01-06T06:16:17.192Z,102284.63
2023-01-06T06:18:51.200Z,102289.53
2023-01-06T06:21:21.103Z,102285.66
2023-01-06T06:23:49.256Z,102289.66
2023-01-06T06:26:17.622Z,102273.63
2023-01-06T06:28:45.599Z,102289.41
2023-01-06T06:31:15.666Z,102222.63
2023-01-06T06:33:43.712Z,102283.50
2023-01-06T06:36:16.783Z,102265.13
2023-01-06T06:38:45.605Z,102259.03
2023-01-06T06:41:14.284Z,102279.41
2023-01-06T06:43:43.239Z,102272.06
2023-01-06T06:46:12.279Z,102273.47
2023-01-06T06:48:40.652Z,102274.72
2023-01-06T06:51:10.395Z,102265.94
2023-01-06T06:53:41.066Z,102263.31
2023-01-06T06:56:10.462Z,102243.31
2023-01-06T06:58:39.339Z,102256.72
2023-01-06T07:01:08.086Z,102249.78
2023-01-06T07:03:36.200Z,102263.59
2023-01-06T07:06:05.445Z,102260.44
2023-01-06T07:08:34.383Z,102261.69
2023-01-06T07:11:06.521Z,102260.94
2023-01-06T07:13:34.364Z,102256.16
2023-01-06T07:16:02.478Z,102250.28
2023-01-06T07:18:30.431Z,102243.69
2023-01-06T07:20:58.427Z,102242.34
2023-01-06T07:23:26.976Z,102213.75
2023-01-06T07:25:55.922Z,102237.22
2023-01-06T07:28:25.689Z,102243.19
2023-01-06T07:30:54.320Z,102243.84
2023-01-06T07:33:23.058Z,102203.34
2023-01-06T07:35:54.416Z,102227.97
2023-01-06T07:38:22.792Z,102207.88
2023-01-06T07:40:51.071Z,102177.91
2023-01-06T07:43:19.146Z,102212.16
2023-01-06T07:45:49.425Z,102222.16
2023-01-06T07:48:17.885Z,102221.41
2023-01-06T07:50:46.183Z,102209.66
2023-01-06T07:53:14.535Z,102216.19
2023-01-06T07:55:42.461Z,102213.94
2023-01-06T07:58:11.004Z,102212.13
2023-01-06T08:00:39.139Z,102204.28
2023-01-06T08:03:08.846Z,102208.25
2023-01-06T08:05:38.407Z,102204.03
2023-01-06T08:08:06.549Z,102217.91
2023-01-06T08:10:34.565Z,102208.56
2023-01-06T08:13:02.456Z,102215.84
2023-01-06T08:15:30.469Z,102213.59
2023-01-06T08:17:58.416Z,102209.53
2023-01-06T08:20:28.113Z,102213.31
2023-01-06T08:22:56.166Z,102215.31
2023-01-06T08:25:24.063Z,102206.69
2023-01-06T08:27:52.025Z,102206.59
2023-01-06T08:30:21.520Z,102194.78
2023-01-06T08:32:49.695Z,102212.38
2023-01-06T08:35:18.245Z,102216.16
2023-01-06T08:37:47.658Z,102103.13
2023-01-06T08:40:15.716Z,102201.09
2023-01-06T08:42:43.588Z,102214.53
2023-01-06T08:45:13.226Z,102212.13
2023-01-06T08:47:41.343Z,102204.28
2023-01-06T08:50:09.740Z,102210.75
2023-01-06T08:52:37.976Z,102202.00
2023-01-06T08:55:07.563Z,102210.59
2023-01-06T08:57:35.618Z,102197.56
2023-01-06T09:00:04.084Z,102181.53
2023-01-06T09:02:32.515Z,102143.56
2023-01-06T09:05:00.664Z,102201.69
2023-01-06T09:07:28.681Z,102196.22
2023-01-06T09:09:56.676Z,102210.72
2023-01-06T09:12:26.174Z,102204.66
2023-01-06T09:14:54.305Z,102183.94
2023-01-06T09:17:22.501Z,102185.75
2023-01-06T09:19:50.580Z,102175.34
2023-01-06T09:22:18.591Z,102202.69
2023-01-06T09:24:46.457Z,102193.44
2023-01-06T09:27:14.477Z,102192.22
2023-01-06T09:29:43.919Z,102207.50
2023-01-06T09:32:11.832Z,102204.94
2023-01-06T09:34:39.888Z,102204.94
2023-01-06T09:37:10.879Z,102188.47
2023-01-06T09:39:38.723Z,102197.25
2023-01-06T09:42:38.088Z,102165.13
2023-01-06T09:45:12.781Z,102172.78
2023-01-06T09:47:45.753Z,102187.16
2023-01-06T09:50:22.732Z,102180.69
2023-01-06T09:52:55.663Z,102186.88
2023-01-06T09:55:32.335Z,102181.16
2023-01-06T09:58:04.554Z,102159.56
2023-01-06T10:00:37.947Z,102166.34
2023-01-06T10:03:06.817Z,102166.25
2023-01-06T10:05:42.837Z,102157.78
2023-01-06T10:08:18.364Z,102161.25
2023-01-06T10:10:55.408Z,102166.41
2023-01-06T10:13:40.450Z,102170.78
2023-01-06T10:16:17.656Z,102161.84
2023-01-06T10:18:56.203Z,102168.66
2023-01-06T10:21:32.463Z,102144.34
2023-01-06T10:24:26.482Z,102152.94
2023-01-06T10:26:58.965Z,102140.69
2023-01-06T10:29:35.237Z,102104.72
2023-01-06T10:32:07.478Z,102126.97
2023-01-06T10:34:36.141Z,102139.03
2023-01-06T10:37:14.114Z,102073.53
2023-01-06T10:39:45.904Z,102131.66
2023-01-06T10:42:47.076Z,102120.66
2023-01-06T10:45:21.672Z,102122.78
2023-01-06T10:47:52.458Z,102111.63
2023-01-06T10:50:20.740Z,102103.88
2023-01-06T10:52:49.793Z,102108.88
2023-01-06T10:55:37.997Z,102086.22
2023-01-06T10:58:15.687Z,102093.50
2023-01-06T11:00:57.165Z,102106.91
2023-01-06T11:03:35.261Z,102097.41
2023-01-06T11:06:07.933Z,102104.34
2023-01-06T11:08:37.128Z,102089.72
2023-01-06T11:11:16.652Z,102088.97
2023-01-06T11:13:58.164Z,102089.72
2023-01-06T11:16:29.067Z,102080.34
2023-01-06T11:19:01.413Z,102070.25
2023-01-06T11:21:40.082Z,102055.91
2023-01-06T11:24:18.804Z,102069.94
2023-01-06T11:26:53.276Z,102066.94
2023-01-06T11:29:28.090Z,102046.09
2023-01-06T11:31:57.508Z,102047.59
2023-01-06T11:34:29.119Z,102048.34
2023-01-06T11:36:58.115Z,102043.97
2023-01-06T11:39:30.076Z,102037.19
2023-01-06T11:42:04.158Z,102030.25
2023-01-06T11:44:35.289Z,101971.78
2023-01-06T11:47:06.436Z,102024.09
2023-01-06T11:49:40.594Z,102000.06
2023-01-06T11:52:21.693Z,102003.69
2023-01-06T11:54:59.152Z,102008.53
2023-01-06T11:57:33.900Z,102013.19
2023-01-06T12:00:23.935Z,102023.16
2023-01-06T12:02:58.850Z,101934.94
2023-01-06T12:05:37.084Z,102000.50
2023-01-06T12:08:12.873Z,101988.84
2023-01-06T12:10:44.435Z,101990.34
2023-01-06T12:13:14.106Z,101998.50
2023-01-06T12:15:46.627Z,101979.63
2023-01-06T12:18:20.926Z,101992.31
2023-01-06T12:20:52.865Z,101993.38
2023-01-06T12:23:25.142Z,101968.50
2023-01-06T12:25:56.272Z,101987.06
2023-01-06T12:28:28.237Z,101983.00
2023-01-06T12:31:03.790Z,101984.81
2023-01-06T12:33:36.996Z,101982.25
2023-01-06T12:36:13.329Z,101965.50
2023-01-06T12:38:50.740Z,101853.16
2023-01-06T12:41:24.827Z,101973.34
2023-01-06T12:43:59.962Z,101958.41
2023-01-06T12:46:33.688Z,101950.09
2023-01-06T12:49:05.937Z,101974.84
2023-01-06T12:51:42.130Z,101947.38
2023-01-06T12:54:15.931Z,101948.28
2023-01-06T12:57:03.475Z,101973.19
2023-01-06T12:59:40.707Z,101959.31
2023-01-06T13:02:25.313Z,101946.16
2023-01-06T13:05:26.302Z,101933.19
2023-01-06T13:08:08.666Z,101944.19
2023-01-06T13:10:40.818Z,101909.03
2023-01-06T13:13:31.262Z,101906.94
2023-01-06T13:16:06.031Z,101931.66
2023-01-06T13:18:39.591Z,101880.22
2023-01-06T13:21:10.964Z,101908.56
2023-01-06T13:23:59.539Z,101895.91
2023-01-06T13:26:43.720Z,101904.34
2023-01-06T13:29:22.448Z,101867.69
2023-01-06T13:32:19.701Z,101887.91
2023-01-06T13:35:03.613Z,101886.09
2023-01-06T13:37:36.326Z,101883.53
2023-01-06T13:40:11.424Z,101869.97
2023-01-06T13:42:43.519Z,101878.41
2023-01-06T13:45:18.581Z,101849.16
2023-01-06T13:47:48.023Z,101859.56
2023-01-06T13:50:18.471Z,101833.03
2023-01-06T13:52:47.037Z,101851.72
2023-01-06T13:55:29.495Z,101862.13
2023-01-06T13:57:57.608Z,101703.75
2023-01-06T14:00:28.239Z,101850.97
2023-01-06T14:03:27.835Z,101824.13
2023-01-06T14:05:57.480Z,101841.31
2023-01-06T14:08:30.599Z,101846.28
2023-01-06T14:11:22.347Z,101836.03
2023-01-06T14:13:55.202Z,101842.50
2023-01-06T14:16:39.202Z,101829.72
2023-01-06T14:19:09.562Z,101836.50
2023-01-06T14:21:37.674Z,101831.81
2023-01-06T14:24:07.722Z,101823.06
2023-01-06T14:26:53.125Z,101788.38
2023-01-06T14:30:03.720Z,101840.84
2023-01-06T14:33:17.431Z,101844.94
2023-01-06T14:35:47.282Z,101834.22
2023-01-06T14:38:25.296Z,101827.88
2023-01-06T14:40:58.719Z,101843.13
2023-01-06T14:43:35.875Z,101847.34
2023-01-06T14:46:11.003Z,101842.97
2023-01-06T14:48:45.553Z,101835.13
2023-01-06T14:51:19.823Z,101833.47
2023-01-06T14:53:53.666Z,101834.97
2023-01-06T14:56:25.272Z,101828.94
2023-01-06T14:59:04.201Z,101832.41
2023-01-06T15:01:38.352Z,101822.88
2023-01-06T15:04:08.184Z,101842.06
2023-01-06T15:06:36.112Z,101837.53
2023-01-06T15:09:19.312Z,101845.84
2023-01-06T15:11:47.713Z,101799.81
2023-01-06T15:14:34.475Z,101853.69
2023-01-06T15:17:05.121Z,101835.44
2023-01-06T15:19:33.486Z,101856.25
2023-01-06T15:22:03.299Z,101863.34
2023-01-06T15:24:32.762Z,101831.97
2023-01-06T15:27:06.686Z,101819.13
2023-01-06T15:29:36.158Z,101863.78
2023-01-06T15:32:05.494Z,101860.00
2023-01-06T15:34:36.768Z,101870.72
2023-01-06T15:37:09.334Z,101864.84
2023-01-06T15:39:39.872Z,101855.50
2023-01-06T15:42:10.696Z,101863.94
2023-01-06T15:44:40.838Z,101850.81
2023-01-06T15:47:30.831Z,101867.41
2023-01-06T15:50:02.699Z,101866.66
2023-01-06T15:52:33.947Z,101864.25
2023-01-06T15:55:05.195Z,101859.28
2023-01-06T15:57:36.961Z,101853.84
2023-01-06T16:00:19.798Z,101813.72
2023-01-06T16:02:48.866Z,101858.38
2023-01-06T16:05:35.455Z,101841.19
2023-01-06T16:08:04.416Z,101833.66
2023-01-06T16:10:34.755Z,101847.22
2023-01-06T16:13:22.423Z,101853.25
2023-01-06T16:15:54.608Z,101830.31
2023-01-06T16:18:31.417Z,101803.31
2023-01-06T16:21:01.308Z,101828.22
2023-01-06T16:23:33.854Z,101790.50
2023-01-06T16:26:15.478Z,101839.22
2023-01-06T16:28:47.910Z,101844.81
2023-01-06T16:31:30.428Z,101845.09
2023-01-06T16:34:16.297Z,101829.88
2023-01-06T16:36:44.315Z,101835.16
2023-01-06T16:39:12.240Z,101816.44
2023-01-06T16:41:42.851Z,101839.38
2023-01-06T16:44:11.498Z,101824.00
2023-01-06T16:46:40.828Z,101817.66
2023-01-06T16:49:11.729Z,101817.22
2023-01-06T16:51:40.256Z,101799.88
2023-01-06T16:54:11.563Z,101813.16
2023-01-06T16:56:39.994Z,101791.72
2023-01-06T16:59:11.862Z,101810.72
2023-01-06T17:01:41.618Z,101808.16
2023-01-06T17:04:11.569Z,101804.84
2023-01-06T17:06:40.725Z,101807.41
2023-01-06T17:09:19.866Z,101815.09
2023-01-06T17:11:48.831Z,101810.88
2023-01-06T17:14:18.401Z,101805.59
2023-01-06T17:16:48.506Z,101811.34
2023-01-06T17:19:20.692Z,101811.34
2023-01-06T17:21:50.208Z,101795.94
2023-01-06T17:24:21.135Z,101811.34
2023-01-06T17:26:52.585Z,101809.06
2023-01-06T17:29:22.201Z,101804.09
2023-01-06T17:31:54.171Z,101785.53
2023-01-06T17:34:24.824Z,101678.97
2023-01-06T17:36:56.694Z,101792.19
2023-01-06T17:39:27.731Z,101790.53
2023-01-06T17:42:02.744Z,101788.72
2023-01-06T17:44:36.813Z,101786.31
2023-01-06T17:47:24.975Z,101744.84
2023-01-06T17:49:55.384Z,101778.59
2023-01-06T17:52:24.954Z,101784.78
2023-01-06T17:55:12.998Z,101782.84
2023-01-06T17:57:43.981Z,101775.44
2023-01-06T18:00:20.029Z,101773.94
2023-01-06T18:02:54.451Z,101778.91
2023-01-06T18:06:09.505Z,101765.94
2023-01-06T18:08:38.738Z,101704.59
2023-01-06T18:11:28.092Z,101753.28
2023-01-06T18:13:56.384Z,101720.72
2023-01-06T18:16:32.457Z,101743.47
2023-01-06T18:19:21.948Z,101755.09
2023-01-06T18:21:50.064Z,101741.38
2023-01-06T18:24:23.230Z,101743.94
2023-01-06T18:26:54.620Z,101754.31
2023-01-06T18:29:25.571Z,101737.59
2023-01-06T18:31:55.245Z,101746.78
2023-01-06T18:34:36.335Z,101745.72
2023-01-06T18:37:04.610Z,101738.19
2023-01-06T18:39:38.984Z,101738.34
2023-01-06T18:42:22.809Z,101744.38
2023-01-06T18:44:52.326Z,101732.31
2023-01-06T18:47:24.424Z,101730.19
2023-01-06T18:49:58.190Z,101725.69
2023-01-06T18:52:39.269Z,101739.25
2023-01-06T18:55:20.367Z,101740.75
2023-01-06T18:57:55.386Z,101734.72
2023-01-06T19:00:48.697Z,101727.19
2023-01-06T19:03:32.408Z,101706.53
2023-01-06T19:06:20.506Z,101724.47
2023-01-06T19:08:50.947Z,101725.38
2023-01-06T19:11:20.993Z,101725.38
2023-01-06T19:13:49.829Z,101724.31
2023-01-06T19:16:36.736Z,101716.94
2023-01-06T19:19:20.696Z,101720.69
2023-01-06T19:21:50.030Z,101688.44
2023-01-06T19:24:41.733Z,101721.00
2023-01-06T19:27:35.943Z,101715.56
2023-01-06T19:30:36.228Z,101673.69
2023-01-06T19:33:36.334Z,101719.19
2023-01-06T19:36:38.796Z,101717.53
2023-01-06T19:39:23.864Z,101728.53
2023-01-06T19:41:54.294Z,101727.03
2023-01-06T19:44:32.043Z,101653.34
2023-01-06T19:47:01.544Z,101733.22
2023-01-06T19:49:38.683Z,101735.63
2023-01-06T19:52:27.489Z,101726.88
2023-01-06T19:54:57.251Z,101724.19
2023-01-06T19:57:29.329Z,101727.66
2023-01-06T19:59:59.714Z,101727.50
2023-01-06T20:02:30.458Z,101720.09
2023-01-06T20:04:58.898Z,101746.94
2023-01-06T20:07:26.774Z,101737.28
2023-01-06T20:09:56.290Z,101729.16
2023-01-06T20:12:24.262Z,101733.06
2023-01-06T20:14:52.155Z,101732.78
2023-01-06T20:17:20.200Z,101699.75
2023-01-06T20:19:48.159Z,101735.63
2023-01-06T20:22:16.266Z,101732.91
2023-01-06T20:24:44.371Z,101562.66
2023-01-06T20:27:13.778Z,101699.75
2023-01-06T20:29:41.672Z,101726.13
2023-01-06T20:32:09.593Z,101723.72
2023-01-06T20:34:37.657Z,101708.34
2023-01-06T20:37:05.650Z,101709.09
2023-01-06T20:39:33.736Z,101720.09
2023-01-06T20:42:04.376Z,101720.25
2023-01-06T20:44:33.823Z,101700.81
2023-01-06T20:47:01.778Z,101717.69
2023-01-06T20:49:29.725Z,101708.19
2023-01-06T20:51:57.599Z,101718.16
2023-01-06T20:54:25.572Z,101710.31
2023-01-06T20:56:55.910Z,101707.28
2023-01-06T20:59:23.793Z,101720.25
2023-01-06T21:01:53.295Z,101724.78
2023-01-06T21:04:21.343Z,101712.13
2023-01-06T21:06:49.450Z,101717.25
2023-01-06T21:09:17.441Z,101701.88
2023-01-06T21:11:45.387Z,101698.41
2023-01-06T21:14:13.209Z,101708.50
2023-01-06T21:16:41.235Z,101715.28
2023-01-06T21:19:10.826Z,101716.03
2023-01-06T21:21:38.911Z,101683.31
2023-01-06T21:24:07.389Z,101702.16
2023-01-06T21:26:35.448Z,101703.06
2023-01-06T21:29:03.292Z,101689.22
2023-01-06T21:31:31.684Z,101691.00
2023-01-06T21:33:59.605Z,101701.25
2023-01-06T21:36:28.866Z,101693.56
2023-01-06T21:38:56.827Z,101684.06
2023-01-06T21:41:42.631Z,101686.63
2023-01-06T21:44:10.580Z,101647.63
2023-01-06T21:46:40.062Z,101650.63
2023-01-06T21:49:09.621Z,101684.97
2023-01-06T21:51:41.928Z,101680.91
2023-01-06T21:54:09.801Z,101684.38
2023-01-06T21:56:37.975Z,101680.00
2023-01-06T21:59:07.508Z,101643.53
2023-01-06T22:01:35.464Z,101665.53
2023-01-06T22:04:03.392Z,101674.72
2023-01-06T22:06:32.147Z,101671.25
2023-01-06T22:09:05.800Z,101605.13
2023-01-06T22:11:34.516Z,101660.25
2023-01-06T22:14:05.490Z,101653.59
2023-01-06T22:16:35.004Z,101655.25
2023-01-06T22:19:03.187Z,101656.94
2023-01-06T22:21:31.011Z,101662.19
2023-01-06T22:23:59.047Z,101666.56
2023-01-06T22:26:28.331Z,101670.78
2023-01-06T22:28:56.138Z,101649.41
2023-01-06T22:31:24.124Z,101674.41
2023-01-06T22:33:52.029Z,101672.59
2023-01-06T22:36:19.950Z,101660.84
2023-01-06T22:38:47.922Z,101660.69
2023-01-06T22:41:15.927Z,101540.38
2023-01-06T22:43:45.130Z,101643.22
2023-01-06T22:46:13.161Z,101662.50
2023-01-06T22:48:41.147Z,101665.34
2023-01-06T22:51:09.182Z,101653.28
2023-01-06T22:53:37.231Z,101625.44
2023-01-06T22:56:07.306Z,101649.97
2023-01-06T22:58:36.337Z,101657.81
2023-01-06T23:01:07.377Z,101648.47
2023-01-06T23:03:36.020Z,101639.88
2023-01-06T23:06:05.894Z,101658.25
2023-01-06T23:08:40.602Z,101648.16
2023-01-06T23:11:12.246Z,101650.84
2023-01-06T23:13:41.690Z,101648.59
2023-01-06T23:16:13.169Z,101634.25
2023-01-06T23:18:42.463Z,101623.38
2023-01-06T23:21:13.238Z,101639.81
2023-01-06T23:23:42.722Z,101636.50
2023-01-06T23:26:12.414Z,101614.34
2023-01-06T23:28:40.847Z,101628.19
2023-01-06T23:31:13.776Z,101573.25
2023-01-06T23:33:42.934Z,101624.88
2023-01-06T23:36:12.486Z,101622.31
2023-01-06T23:38:40.512Z,101601.97
2023-01-06T23:41:11.143Z,101611.28
2023-01-06T23:43:40.434Z,101603.63
2023-01-06T23:46:11.324Z,101608.56
2023-01-06T23:48:41.499Z,101612.94
2023-01-06T23:51:10.729Z,101612.50
2023-01-06T23:53:39.692Z,101616.41
2023-01-06T23:56:09.554Z,101601.03
2023-01-06T23:58:38.841Z,101616.56
